createdAt,value
2022-12-18T00:00:52.757Z,1018.2
2022-12-18T00:01:54.876Z,1018.3
2022-12-18T00:02:56.791Z,1018.2
2022-12-18T00:03:58.852Z,1018.3
2022-12-18T00:05:00.776Z,1018.3
2022-12-18T00:06:02.738Z,1018.3
2022-12-18T00:07:05.449Z,1018.3
2022-12-18T00:08:09.510Z,1018.3
2022-12-18T00:09:08.776Z,1018.3
2022-12-18T00:10:10.758Z,1018.3
2022-12-18T00:11:12.757Z,1018.3
2022-12-18T00:13:16.678Z,1018.3
2022-12-18T00:14:17.801Z,1018.3
2022-12-18T00:15:19.776Z,1018.3
2022-12-18T00:16:21.834Z,1018.3
2022-12-18T00:17:23.756Z,1018.3
2022-12-18T00:18:25.760Z,1018.4
2022-12-18T00:19:27.776Z,1018.3
2022-12-18T00:20:29.697Z,1018.3
2022-12-18T00:21:30.704Z,1018.3
2022-12-18T00:22:31.793Z,1018.3
2022-12-18T00:23:33.717Z,1018.3
2022-12-18T00:24:35.747Z,1018.4
2022-12-18T00:25:37.737Z,1018.4
2022-12-18T00:26:39.798Z,1018.3
2022-12-18T00:27:41.756Z,1018.4
2022-12-18T00:28:43.718Z,1018.4
2022-12-18T00:29:44.757Z,1018.4
2022-12-18T00:30:46.731Z,1018.4
2022-12-18T00:31:48.816Z,1018.4
2022-12-18T00:32:50.758Z,1018.4
2022-12-18T00:33:53.960Z,1018.4
2022-12-18T00:34:54.756Z,1018.4
2022-12-18T00:35:56.809Z,1018.4
2022-12-18T00:36:59.056Z,1018.4
2022-12-18T00:38:00.885Z,1018.4
2022-12-18T00:39:02.765Z,1018.5
2022-12-18T00:40:04.763Z,1018.5
2022-12-18T00:41:06.777Z,1018.4
2022-12-18T00:42:08.736Z,1018.5
2022-12-18T00:43:10.836Z,1018.5
2022-12-18T00:44:12.763Z,1018.5
2022-12-18T00:45:14.732Z,1018.5
2022-12-18T00:46:16.775Z,1018.5
2022-12-18T00:47:18.744Z,1018.5
2022-12-18T00:48:20.835Z,1018.6
2022-12-18T00:49:22.737Z,1018.6
2022-12-18T00:50:24.836Z,1018.6
2022-12-18T00:51:26.777Z,1018.6
2022-12-18T00:52:28.777Z,1018.3
2022-12-18T00:53:30.874Z,1018.5
2022-12-18T00:54:32.700Z,1018.7
2022-12-18T00:55:33.724Z,1018.7
2022-12-18T00:56:34.725Z,1018.7
2022-12-18T00:57:36.789Z,1018.7
2022-12-18T00:58:38.801Z,1018.6
2022-12-18T00:59:40.737Z,1018.7
2022-12-18T01:00:42.848Z,1018.7
2022-12-18T01:01:44.999Z,1018.7
2022-12-18T01:02:46.923Z,1018.7
2022-12-18T01:03:48.718Z,1018.8
2022-12-18T01:04:49.776Z,1018.8
2022-12-18T01:05:51.776Z,1018.8
2022-12-18T01:06:53.763Z,1018.8
2022-12-18T01:07:55.817Z,1018.8
2022-12-18T01:08:57.738Z,1018.8
2022-12-18T01:09:59.856Z,1018.7
2022-12-18T01:11:01.758Z,1018.8
2022-12-18T01:12:03.715Z,1018.9
2022-12-18T01:13:04.760Z,1019
2022-12-18T01:14:06.837Z,1019
2022-12-18T01:15:08.800Z,1019
2022-12-18T01:16:10.794Z,1019
2022-12-18T01:17:12.738Z,1019
2022-12-18T01:18:14.837Z,1019
2022-12-18T01:19:16.817Z,1019
2022-12-18T01:20:18.777Z,1018.2
2022-12-18T01:21:20.738Z,1018.8
2022-12-18T01:22:22.743Z,1019
2022-12-18T01:23:24.959Z,1019.1
2022-12-18T01:24:26.741Z,1019.1
2022-12-18T01:25:28.756Z,1019.1
2022-12-18T01:26:30.783Z,1019.2
2022-12-18T01:27:33.480Z,1019.3
2022-12-18T01:28:34.879Z,1019.2
2022-12-18T01:29:36.736Z,1019.2
2022-12-18T01:30:38.758Z,1018.4
2022-12-18T01:31:40.854Z,1019
2022-12-18T01:32:42.797Z,1019.1
2022-12-18T01:33:44.856Z,1019.2
2022-12-18T01:34:46.745Z,1019.2
2022-12-18T01:35:48.694Z,1019.3
2022-12-18T01:36:49.717Z,1019.2
2022-12-18T01:37:50.697Z,1019.2
2022-12-18T01:38:51.776Z,1019.2
2022-12-18T01:39:53.752Z,1019.2
2022-12-18T01:40:55.778Z,1019.2
2022-12-18T01:41:57.815Z,1019.2
2022-12-18T01:42:59.816Z,1019.2
2022-12-18T01:44:01.777Z,1019.3
2022-12-18T01:45:03.839Z,1019.3
2022-12-18T01:46:05.785Z,1019.2
2022-12-18T01:47:07.800Z,1019.2
2022-12-18T01:48:09.989Z,1019.3
2022-12-18T01:49:11.838Z,1019.2
2022-12-18T01:50:13.736Z,1019.2
2022-12-18T01:51:15.016Z,1019.2
2022-12-18T01:52:17.921Z,1019.2
2022-12-18T01:53:19.776Z,1019.2
2022-12-18T01:54:21.776Z,1019.2
2022-12-18T01:55:23.777Z,1019.3
2022-12-18T01:56:25.777Z,1019.3
2022-12-18T01:57:27.755Z,1019.3
2022-12-18T01:58:28.736Z,1019.3
2022-12-18T01:59:29.777Z,1019.3
2022-12-18T02:00:31.817Z,1019.3
2022-12-18T02:01:33.956Z,1019.3
2022-12-18T02:02:35.924Z,1019.3
2022-12-18T02:07:00.736Z,1019.3
2022-12-18T02:08:02.795Z,1019.3
2022-12-18T02:09:04.777Z,1019.3
2022-12-18T02:10:06.816Z,1019.3
2022-12-18T02:11:08.780Z,1019.3
2022-12-18T02:12:10.876Z,1019.3
2022-12-18T02:13:12.866Z,1019.3
2022-12-18T02:14:14.796Z,1019.2
2022-12-18T02:15:16.775Z,1019.2
2022-12-18T02:16:17.857Z,1019.2
2022-12-18T02:17:19.835Z,1019.3
2022-12-18T02:18:21.775Z,1019.3
2022-12-18T02:19:23.777Z,1019.3
2022-12-18T02:20:25.815Z,1019.3
2022-12-18T02:21:27.836Z,1019.3
2022-12-18T02:22:29.824Z,1019.3
2022-12-18T02:23:32.021Z,1019.4
2022-12-18T02:24:33.755Z,1019.4
2022-12-18T02:25:34.815Z,1019.4
2022-12-18T02:26:36.799Z,1019.5
2022-12-18T02:27:38.797Z,1019.5
2022-12-18T02:28:41.109Z,1019.5
2022-12-18T02:29:42.875Z,1019.4
2022-12-18T02:30:44.841Z,1019.4
2022-12-18T02:31:46.776Z,1019.5
2022-12-18T02:32:47.816Z,1019.5
2022-12-18T02:33:49.755Z,1019.5
2022-12-18T02:34:52.136Z,1019.5
2022-12-18T02:35:53.935Z,1019.4
2022-12-18T02:36:55.835Z,1019.5
2022-12-18T02:37:57.816Z,1019.5
2022-12-18T02:39:00.063Z,1019.6
2022-12-18T02:40:02.015Z,1019.6
2022-12-18T02:41:04.295Z,1019.6
2022-12-18T02:42:05.958Z,1019.6
2022-12-18T02:43:08.116Z,1019.6
2022-12-18T02:44:09.958Z,1019.6
2022-12-18T02:45:11.747Z,1019.6
2022-12-18T02:46:13.861Z,1019.7
2022-12-18T02:47:15.795Z,1019.7
2022-12-18T02:48:17.776Z,1019.7
2022-12-18T02:49:19.796Z,1019.6
2022-12-18T02:50:20.962Z,1019.6
2022-12-18T02:51:23.376Z,1019.6
2022-12-18T02:52:25.266Z,1019.6
2022-12-18T02:53:26.795Z,1019.6
2022-12-18T02:54:28.796Z,1019.6
2022-12-18T02:55:30.803Z,1019.6
2022-12-18T02:56:32.795Z,1019.6
2022-12-18T02:57:33.887Z,1019.5
2022-12-18T02:58:35.791Z,1019.6
2022-12-18T02:59:37.995Z,1019.6
2022-12-18T03:00:39.856Z,1019.5
2022-12-18T03:01:42.183Z,1019.5
2022-12-18T03:02:43.915Z,1019.5
2022-12-18T03:03:45.896Z,1019.5
2022-12-18T03:04:47.756Z,1019.5
2022-12-18T03:05:48.897Z,1019.5
2022-12-18T03:06:50.822Z,1019.5
2022-12-18T03:07:52.836Z,1019.5
2022-12-18T03:08:54.849Z,1019.5
2022-12-18T03:09:56.747Z,1019.5
2022-12-18T03:10:58.815Z,1019.6
2022-12-18T03:12:00.886Z,1019.6
2022-12-18T03:13:03.068Z,1019.6
2022-12-18T03:14:04.815Z,1019.5
2022-12-18T03:15:06.968Z,1019.6
2022-12-18T03:16:08.875Z,1019.6
2022-12-18T03:17:11.415Z,1019.6
2022-12-18T03:18:12.900Z,1019.6
2022-12-18T03:19:14.875Z,1019.7
2022-12-18T03:20:16.844Z,1019.7
2022-12-18T03:21:18.795Z,1019.8
2022-12-18T03:22:20.770Z,1019.9
2022-12-18T03:23:26.065Z,1019.9
2022-12-18T03:24:25.015Z,1019.8
2022-12-18T03:25:26.816Z,1019.8
2022-12-18T03:26:28.820Z,1019.7
2022-12-18T03:27:30.854Z,1019.7
2022-12-18T03:28:32.876Z,1019.6
2022-12-18T03:29:34.744Z,1019.6
2022-12-18T03:30:36.011Z,1019.6
2022-12-18T03:31:37.835Z,1019.6
2022-12-18T03:32:39.857Z,1019.6
2022-12-18T03:33:42.293Z,1019.7
2022-12-18T03:34:43.835Z,1019.7
2022-12-18T03:35:45.795Z,1019.7
2022-12-18T03:36:46.795Z,1019.7
2022-12-18T03:37:48.175Z,1019.7
2022-12-18T03:38:49.770Z,1019.7
2022-12-18T03:39:50.756Z,1019.8
2022-12-18T03:40:51.835Z,1019.7
2022-12-18T03:41:53.855Z,1019.7
2022-12-18T03:42:55.875Z,1019.7
2022-12-18T03:43:57.835Z,1019.8
2022-12-18T03:44:59.856Z,1019.8
2022-12-18T03:46:02.136Z,1019.7
2022-12-18T03:47:03.855Z,1019.9
2022-12-18T03:48:05.816Z,1019.8
2022-12-18T03:49:07.795Z,1019.8
2022-12-18T03:50:12.750Z,1019.8
2022-12-18T03:51:12.855Z,1019.8
2022-12-18T03:52:14.895Z,1019.8
2022-12-18T03:53:17.115Z,1019.9
2022-12-18T03:54:18.835Z,1019
2022-12-18T03:55:20.775Z,1019.7
2022-12-18T03:56:22.836Z,1019.9
2022-12-18T03:57:25.055Z,1019.9
2022-12-18T03:58:26.837Z,1020
2022-12-18T03:59:28.815Z,1020
2022-12-18T04:00:31.055Z,1019.9
2022-12-18T04:01:33.215Z,1020
2022-12-18T04:02:35.061Z,1020
2022-12-18T04:03:36.902Z,1020
2022-12-18T04:04:38.815Z,1020
2022-12-18T04:05:45.903Z,1020.1
2022-12-18T04:06:47.984Z,1020.1
2022-12-18T04:07:49.775Z,1020.1
2022-12-18T04:08:50.843Z,1020
2022-12-18T04:09:52.810Z,1020
2022-12-18T04:10:54.855Z,1020
2022-12-18T04:11:56.855Z,1020
2022-12-18T04:12:58.837Z,1020
2022-12-18T04:14:03.635Z,1020
2022-12-18T04:15:02.863Z,1020
2022-12-18T04:16:05.296Z,1020.1
2022-12-18T04:17:06.982Z,1020.1
2022-12-18T04:18:08.895Z,1020.1
2022-12-18T04:19:10.856Z,1020.1
2022-12-18T04:20:12.896Z,1020.1
2022-12-18T04:21:14.775Z,1020.2
2022-12-18T04:22:15.816Z,1020.2
2022-12-18T04:23:17.905Z,1020.2
2022-12-18T04:24:19.875Z,1020.2
2022-12-18T04:25:21.915Z,1020.3
2022-12-18T04:26:23.775Z,1020.3
2022-12-18T04:27:25.895Z,1020.3
2022-12-18T04:28:27.916Z,1020.3
2022-12-18T04:29:29.955Z,1020.2
2022-12-18T04:30:32.136Z,1020.3
2022-12-18T04:31:33.965Z,1020.3
2022-12-18T04:32:35.996Z,1020.3
2022-12-18T04:33:38.199Z,1020.3
2022-12-18T04:34:39.816Z,1020.3
2022-12-18T04:35:41.915Z,1020.3
2022-12-18T04:36:44.618Z,1020.3
2022-12-18T04:37:45.875Z,1020.3
2022-12-18T04:38:47.905Z,1020.3
2022-12-18T04:39:49.799Z,1020.2
2022-12-18T04:40:50.836Z,1020.2
2022-12-18T04:41:52.877Z,1020.3
2022-12-18T04:42:54.909Z,1020.3
2022-12-18T04:43:56.898Z,1020.4
2022-12-18T04:44:58.977Z,1020.3
2022-12-18T04:46:00.975Z,1020.4
2022-12-18T04:47:02.944Z,1020.4
2022-12-18T04:48:05.260Z,1019.9
2022-12-18T04:49:06.840Z,1020.3
2022-12-18T04:50:08.956Z,1020.5
2022-12-18T04:51:11.015Z,1020.1
2022-12-18T04:52:13.217Z,1020.3
2022-12-18T04:53:14.863Z,1020.4
2022-12-18T04:54:16.856Z,1020.3
2022-12-18T04:55:18.895Z,1020.4
2022-12-18T04:56:20.818Z,1020.5
2022-12-18T04:57:21.876Z,1020.5
2022-12-18T04:58:23.896Z,1020.5
2022-12-18T04:59:25.916Z,1020.5
2022-12-18T05:00:27.935Z,1020.5
2022-12-18T05:01:34.448Z,1020.5
2022-12-18T05:02:32.019Z,1020.6
2022-12-18T05:03:34.025Z,1020.5
2022-12-18T05:04:35.816Z,1020.5
2022-12-18T05:05:37.876Z,1020.6
2022-12-18T05:06:39.844Z,1020.6
2022-12-18T05:07:41.896Z,1020.6
2022-12-18T05:08:43.855Z,1020.6
2022-12-18T05:09:46.041Z,1020.7
2022-12-18T05:10:47.916Z,1020.7
2022-12-18T05:11:49.837Z,1020.6
2022-12-18T05:12:50.916Z,1020.7
2022-12-18T05:13:52.921Z,1020.7
2022-12-18T05:14:54.896Z,1020.6
2022-12-18T05:15:56.943Z,1020.6
2022-12-18T05:17:00.965Z,1020.6
2022-12-18T05:18:00.869Z,1020.6
2022-12-18T05:19:08.832Z,1020.6
2022-12-18T05:20:05.242Z,1020.7
2022-12-18T05:21:06.918Z,1020.7
2022-12-18T05:22:08.877Z,1020.7
2022-12-18T05:23:10.856Z,1020.6
2022-12-18T05:24:12.897Z,1020.9
2022-12-18T05:25:14.935Z,1020.8
2022-12-18T05:26:16.856Z,1020.7
2022-12-18T05:27:18.899Z,1020.7
2022-12-18T05:28:20.798Z,1020.7
2022-12-18T05:29:21.848Z,1020.7
2022-12-18T05:30:23.916Z,1020.7
2022-12-18T05:31:25.908Z,1020.7
2022-12-18T05:32:27.879Z,1020.8
2022-12-18T05:33:29.956Z,1020.8
2022-12-18T05:34:31.776Z,1020.8
2022-12-18T05:35:34.041Z,1020.7
2022-12-18T05:36:35.816Z,1020.7
2022-12-18T05:37:41.171Z,1020.7
2022-12-18T05:38:37.836Z,1020.7
2022-12-18T05:39:38.816Z,1020.8
2022-12-18T05:40:39.855Z,1020.8
2022-12-18T05:41:40.838Z,1020.8
2022-12-18T05:42:42.917Z,1020.8
2022-12-18T05:43:45.527Z,1021
2022-12-18T05:44:46.836Z,1021
2022-12-18T05:45:47.896Z,1021.1
2022-12-18T05:46:49.901Z,1021.1
2022-12-18T05:47:51.896Z,1021
2022-12-18T05:48:53.915Z,1021
2022-12-18T05:49:56.150Z,1021
2022-12-18T05:50:58.037Z,1021.1
2022-12-18T05:51:59.855Z,1021.1
2022-12-18T05:53:01.837Z,1021.1
2022-12-18T05:54:02.835Z,1021.1
2022-12-18T05:55:03.916Z,1021.1
2022-12-18T05:56:05.937Z,1021.2
2022-12-18T05:57:07.905Z,1021.2
2022-12-18T05:58:09.897Z,1021.2
2022-12-18T05:59:11.855Z,1021.2
2022-12-18T06:00:13.935Z,1021.2
2022-12-18T06:01:15.964Z,1021.2
2022-12-18T06:02:17.989Z,1021.1
2022-12-18T06:03:19.971Z,1021.1
2022-12-18T06:04:20.855Z,1021.2
2022-12-18T06:05:22.878Z,1021.2
2022-12-18T06:06:25.265Z,1021.1
2022-12-18T06:07:26.857Z,1021.2
2022-12-18T06:08:28.917Z,1021.2
2022-12-18T06:09:30.898Z,1021.2
2022-12-18T06:10:32.897Z,1021.2
2022-12-18T06:11:35.516Z,1021.2
2022-12-18T06:12:37.044Z,1021.1
2022-12-18T06:13:39.573Z,1021.1
2022-12-18T06:14:40.959Z,1021.1
2022-12-18T06:15:43.019Z,1021.1
2022-12-18T06:16:45.938Z,1021.1
2022-12-18T06:17:48.604Z,1021.2
2022-12-18T06:18:49.856Z,1021.3
2022-12-18T06:19:51.812Z,1021.3
2022-12-18T06:20:53.897Z,1021.3
2022-12-18T06:21:56.194Z,1021.3
2022-12-18T06:22:57.875Z,1021.3
2022-12-18T06:23:59.856Z,1021.4
2022-12-18T06:25:00.855Z,1021.3
2022-12-18T06:26:02.144Z,1021.3
2022-12-18T06:27:04.535Z,1021.4
2022-12-18T06:28:05.875Z,1021.4
2022-12-18T06:29:07.875Z,1021.4
2022-12-18T06:30:09.915Z,1021.4
2022-12-18T06:31:12.460Z,1021.4
2022-12-18T06:32:13.895Z,1021.5
2022-12-18T06:33:15.876Z,1021.4
2022-12-18T06:34:19.000Z,1021.4
2022-12-18T06:35:20.875Z,1021.5
2022-12-18T06:36:23.677Z,1021.5
2022-12-18T06:37:25.881Z,1021.5
2022-12-18T06:38:26.876Z,1021.6
2022-12-18T06:39:28.936Z,1021.7
2022-12-18T06:40:30.876Z,1021.7
2022-12-18T06:41:33.518Z,1021.7
2022-12-18T06:42:35.143Z,1021.7
2022-12-18T06:43:37.157Z,1021.8
2022-12-18T06:44:38.897Z,1021.9
2022-12-18T06:45:40.926Z,1021.8
2022-12-18T06:46:42.975Z,1021.8
2022-12-18T06:47:44.854Z,1021.8
2022-12-18T06:48:46.696Z,1021.7
2022-12-18T06:49:47.876Z,1021.7
2022-12-18T06:50:49.821Z,1021.8
2022-12-18T06:51:52.004Z,1021.8
2022-12-18T06:52:54.055Z,1021.7
2022-12-18T06:53:55.908Z,1021.7
2022-12-18T06:54:59.005Z,1021.8
2022-12-18T06:56:03.906Z,1021.9
2022-12-18T06:57:03.149Z,1021.9
2022-12-18T06:58:04.896Z,1021.9
2022-12-18T06:59:07.000Z,1021.9
2022-12-18T07:00:09.193Z,1021.9
2022-12-18T07:01:11.515Z,1021.8
2022-12-18T07:02:14.047Z,1021.9
2022-12-18T07:03:15.935Z,1021.4
2022-12-18T07:04:17.855Z,1021.7
2022-12-18T07:05:19.846Z,1021.8
2022-12-18T07:06:22.004Z,1021.8
2022-12-18T07:07:24.015Z,1021.8
2022-12-18T07:08:25.992Z,1021.8
2022-12-18T07:09:30.736Z,1021.9
2022-12-18T07:10:32.520Z,1021.9
2022-12-18T07:11:33.966Z,1021.9
2022-12-18T07:12:35.924Z,1022
2022-12-18T07:13:38.741Z,1022
2022-12-18T07:14:40.638Z,1021.8
2022-12-18T07:15:41.997Z,1021.9
2022-12-18T07:16:44.001Z,1022
2022-12-18T07:17:45.885Z,1022
2022-12-18T07:18:48.039Z,1022
2022-12-18T07:19:50.215Z,1022.1
2022-12-18T07:20:51.956Z,1022
2022-12-18T07:21:53.957Z,1022.1
2022-12-18T07:22:56.421Z,1022
2022-12-18T07:23:58.038Z,1022
2022-12-18T07:25:00.135Z,1022
2022-12-18T07:26:01.916Z,1022
2022-12-18T07:27:03.935Z,1021.9
2022-12-18T07:28:05.899Z,1022
2022-12-18T07:29:08.035Z,1022
2022-12-18T07:30:09.893Z,1022.1
2022-12-18T07:31:12.025Z,1022
2022-12-18T07:32:14.079Z,1022.1
2022-12-18T07:33:16.238Z,1022.1
2022-12-18T07:34:17.916Z,1022.1
2022-12-18T07:35:24.696Z,1022.2
2022-12-18T07:36:21.911Z,1022.2
2022-12-18T07:37:23.862Z,1022.2
2022-12-18T07:38:25.757Z,1022.2
2022-12-18T07:39:26.947Z,1022.2
2022-12-18T07:40:27.938Z,1022.3
2022-12-18T07:41:30.187Z,1022.3
2022-12-18T07:42:31.915Z,1022.2
2022-12-18T07:43:33.869Z,1022.2
2022-12-18T07:44:35.941Z,1022.2
2022-12-18T07:45:38.066Z,1021.4
2022-12-18T07:46:39.896Z,1022.1
2022-12-18T07:47:41.158Z,1022.2
2022-12-18T07:48:43.440Z,1022.3
2022-12-18T07:49:45.144Z,1022.2
2022-12-18T07:50:47.173Z,1022.5
2022-12-18T07:51:48.897Z,1022.3
2022-12-18T07:52:51.459Z,1022.3
2022-12-18T07:53:53.875Z,1022.2
2022-12-18T07:54:55.124Z,1022.3
2022-12-18T07:56:25.273Z,1022.3
2022-12-18T07:56:58.847Z,1022.3
2022-12-18T07:58:01.231Z,1022.3
2022-12-18T07:59:02.561Z,1022.4
2022-12-18T08:00:04.036Z,1022.3
2022-12-18T08:01:06.974Z,1022.3
2022-12-18T08:02:09.189Z,1022.3
2022-12-18T08:03:11.318Z,1022.4
2022-12-18T08:04:13.039Z,1022.4
2022-12-18T08:05:15.547Z,1022.5
2022-12-18T08:06:17.693Z,1022.5
2022-12-18T08:07:18.930Z,1021.7
2022-12-18T08:08:21.437Z,1022.2
2022-12-18T08:09:23.223Z,1022.4
2022-12-18T08:10:25.484Z,1022.5
2022-12-18T08:11:26.976Z,1022.5
2022-12-18T08:12:29.449Z,1022.5
2022-12-18T08:13:31.619Z,1022.6
2022-12-18T08:14:32.975Z,1022.5
2022-12-18T08:15:34.861Z,1022.6
2022-12-18T08:16:36.558Z,1022.5
2022-12-18T08:17:37.997Z,1022.5
2022-12-18T08:18:41.062Z,1022.6
2022-12-18T08:19:42.955Z,1022.6
2022-12-18T08:20:44.937Z,1022.6
2022-12-18T08:21:46.936Z,1022.6
2022-12-18T08:22:48.936Z,1022.7
2022-12-18T08:23:51.713Z,1022.7
2022-12-18T08:24:52.909Z,1022.7
2022-12-18T08:25:55.041Z,1022.7
2022-12-18T08:27:21.130Z,1022.7
2022-12-18T08:27:59.318Z,1022.7
2022-12-18T08:29:01.253Z,1022.7
2022-12-18T08:30:02.948Z,1022.8
2022-12-18T08:31:05.095Z,1022.8
2022-12-18T08:32:07.149Z,1022.8
2022-12-18T08:33:08.936Z,1022.9
2022-12-18T08:34:10.961Z,1022.9
2022-12-18T08:35:12.995Z,1022.8
2022-12-18T08:36:14.879Z,1022.8
2022-12-18T08:37:16.963Z,1022.9
2022-12-18T08:38:18.958Z,1022.8
2022-12-18T08:39:20.956Z,1022.8
2022-12-18T08:40:22.957Z,1022.8
2022-12-18T08:41:26.203Z,1022.8
2022-12-18T08:42:27.316Z,1022.8
2022-12-18T08:43:29.538Z,1022.8
2022-12-18T08:44:30.958Z,1022.8
2022-12-18T08:45:33.016Z,1023
2022-12-18T08:46:35.193Z,1022.9
2022-12-18T08:47:37.223Z,1022.9
2022-12-18T08:48:40.815Z,1022.8
2022-12-18T08:49:42.099Z,1022.9
2022-12-18T08:50:43.935Z,1023.1
2022-12-18T08:51:46.015Z,1023
2022-12-18T08:52:48.025Z,1023
2022-12-18T08:53:50.002Z,1023
2022-12-18T08:54:51.948Z,1023
2022-12-18T08:55:54.465Z,1023
2022-12-18T08:56:56.017Z,1023
2022-12-18T08:57:57.968Z,1022.9
2022-12-18T08:58:59.935Z,1022.9
2022-12-18T09:00:02.010Z,1022.9
2022-12-18T09:01:04.068Z,1023
2022-12-18T09:02:07.589Z,1023
2022-12-18T09:03:09.525Z,1022.9
2022-12-18T09:04:11.012Z,1022.9
2022-12-18T09:05:13.294Z,1022.9
2022-12-18T09:06:14.898Z,1022.8
2022-12-18T09:07:16.981Z,1022.8
2022-12-18T09:08:19.016Z,1022.7
2022-12-18T09:09:20.919Z,1022.7
2022-12-18T09:10:22.924Z,1022.7
2022-12-18T09:11:25.432Z,1022.7
2022-12-18T09:12:27.419Z,1022.6
2022-12-18T09:13:28.920Z,1022.6
2022-12-18T09:14:30.976Z,1022.6
2022-12-18T09:15:33.012Z,1022.5
2022-12-18T09:16:34.974Z,1022.5
2022-12-18T09:17:36.250Z,1022.5
2022-12-18T09:18:38.153Z,1022.5
2022-12-18T09:19:39.996Z,1022.4
2022-12-18T09:20:41.960Z,1022.4
2022-12-18T09:21:47.928Z,1022.4
2022-12-18T09:22:46.057Z,1022.5
2022-12-18T09:23:47.958Z,1022.4
2022-12-18T09:24:50.806Z,1022.4
2022-12-18T09:25:51.929Z,1022.4
2022-12-18T09:26:57.522Z,1022.3
2022-12-18T09:27:57.020Z,1022.3
2022-12-18T09:28:58.984Z,1022.3
2022-12-18T09:30:01.019Z,1022.3
2022-12-18T09:31:03.045Z,1022.3
2022-12-18T09:32:04.961Z,1022.4
2022-12-18T09:33:07.268Z,1022.3
2022-12-18T09:34:08.938Z,1022.3
2022-12-18T09:35:11.397Z,1022.3
2022-12-18T09:36:12.993Z,1022.3
2022-12-18T09:37:15.153Z,1022.3
2022-12-18T09:38:17.435Z,1022.3
2022-12-18T09:39:19.602Z,1022.3
2022-12-18T09:40:21.649Z,1022.3
2022-12-18T09:41:24.016Z,1022.4
2022-12-18T09:42:25.896Z,1022.3
2022-12-18T09:43:28.705Z,1022.3
2022-12-18T09:44:30.217Z,1022.4
2022-12-18T09:45:32.377Z,1022.3
2022-12-18T09:46:33.969Z,1022.3
2022-12-18T09:47:35.955Z,1022.2
2022-12-18T09:48:39.191Z,1022.2
2022-12-18T09:49:41.015Z,1022.2
2022-12-18T09:50:42.945Z,1022.2
2022-12-18T09:51:44.996Z,1022.2
2022-12-18T09:52:46.996Z,1022.2
2022-12-18T09:53:49.941Z,1022.3
2022-12-18T09:54:51.998Z,1022.2
2022-12-18T09:55:54.016Z,1022.2
2022-12-18T09:56:56.001Z,1022.2
2022-12-18T09:57:58.181Z,1022.2
2022-12-18T09:59:00.160Z,1022.2
2022-12-18T10:00:02.120Z,1022.2
2022-12-18T10:01:04.728Z,1022.2
2022-12-18T10:02:06.060Z,1022.2
2022-12-18T10:03:08.038Z,1022.3
2022-12-18T10:04:10.011Z,1022.4
2022-12-18T10:05:12.177Z,1022.2
2022-12-18T10:06:14.415Z,1022.3
2022-12-18T10:07:16.095Z,1022.3
2022-12-18T10:08:17.996Z,1022.3
2022-12-18T10:09:20.877Z,1022.3
2022-12-18T10:10:23.055Z,1022.3
2022-12-18T10:11:24.927Z,1022.2
2022-12-18T10:12:26.977Z,1022.3
2022-12-18T10:13:31.717Z,1022.3
2022-12-18T10:14:33.048Z,1022.3
2022-12-18T10:15:35.802Z,1022.4
2022-12-18T10:16:36.999Z,1022.5
2022-12-18T10:17:38.972Z,1022.5
2022-12-18T10:18:41.419Z,1022.6
2022-12-18T10:19:42.973Z,1022.6
2022-12-18T10:20:44.949Z,1022.5
2022-12-18T10:21:45.984Z,1022.6
2022-12-18T10:22:48.105Z,1022.6
2022-12-18T10:23:50.415Z,1022.6
2022-12-18T10:24:52.928Z,1021.6
2022-12-18T10:25:53.888Z,1022.3
2022-12-18T10:26:54.950Z,1022.5
2022-12-18T10:27:57.033Z,1022.5
2022-12-18T10:29:03.784Z,1022.6
2022-12-18T10:30:01.083Z,1022.5
2022-12-18T10:31:03.072Z,1022.5
2022-12-18T10:32:05.029Z,1022.4
2022-12-18T10:33:07.141Z,1022.4
2022-12-18T10:34:10.004Z,1022.4
2022-12-18T10:35:11.956Z,1022.5
2022-12-18T10:36:14.197Z,1022.5
2022-12-18T10:37:16.119Z,1022.5
2022-12-18T10:38:17.987Z,1022.4
2022-12-18T10:39:20.169Z,1022.4
2022-12-18T10:40:22.839Z,1022.5
2022-12-18T10:41:24.017Z,1022.5
2022-12-18T10:42:26.387Z,1022.5
2022-12-18T10:43:28.560Z,1022.4
2022-12-18T10:44:31.417Z,1022.4
2022-12-18T10:45:34.523Z,1022.4
2022-12-18T10:46:38.070Z,1022.4
2022-12-18T10:47:41.056Z,1022.4
2022-12-18T10:48:43.391Z,1022.3
2022-12-18T10:49:45.023Z,1022.3
2022-12-18T10:51:10.139Z,1022.4
2022-12-18T10:51:49.063Z,1022.4
2022-12-18T10:52:51.876Z,1022.4
2022-12-18T10:53:54.136Z,1022.4
2022-12-18T10:54:56.444Z,1022.4
2022-12-18T10:55:57.938Z,1022.4
2022-12-18T10:57:00.041Z,1022.4
2022-12-18T10:58:02.056Z,1022.4
2022-12-18T10:59:04.028Z,1022.4
2022-12-18T11:00:06.055Z,1022.4
2022-12-18T11:01:08.225Z,1022.5
2022-12-18T11:02:11.257Z,1022.5
2022-12-18T11:03:13.217Z,1022.4
2022-12-18T11:04:15.096Z,1022.5
2022-12-18T11:05:16.975Z,1022.5
2022-12-18T11:06:19.556Z,1022.6
2022-12-18T11:07:21.605Z,1022.5
2022-12-18T11:08:23.075Z,1022.5
2022-12-18T11:09:25.077Z,1022.6
2022-12-18T11:10:26.980Z,1022.5
2022-12-18T11:11:29.837Z,1022.5
2022-12-18T11:12:31.034Z,1022.5
2022-12-18T11:13:33.185Z,1022.6
2022-12-18T11:14:35.114Z,1022.6
2022-12-18T11:15:37.201Z,1022.6
2022-12-18T11:16:39.105Z,1022.6
2022-12-18T11:17:41.162Z,1022.6
2022-12-18T11:18:43.317Z,1022.6
2022-12-18T11:19:45.097Z,1022.7
2022-12-18T11:20:47.360Z,1022.7
2022-12-18T11:21:49.456Z,1022.7
2022-12-18T11:22:51.557Z,1022.7
2022-12-18T11:23:54.073Z,1022.7
2022-12-18T11:25:22.781Z,1022.7
2022-12-18T11:25:58.076Z,1022.8
2022-12-18T11:27:00.173Z,1022.8
2022-12-18T11:28:02.037Z,1022.8
2022-12-18T11:29:04.018Z,1022.8
2022-12-18T11:30:06.036Z,1022.8
2022-12-18T11:31:08.247Z,1022.7
2022-12-18T11:32:10.545Z,1022.7
2022-12-18T11:33:12.618Z,1022.7
2022-12-18T11:34:30.752Z,1022.6
2022-12-18T11:35:16.995Z,1022.6
2022-12-18T11:36:19.058Z,1022.6
2022-12-18T11:37:20.977Z,1022.6
2022-12-18T11:38:23.124Z,1022.6
2022-12-18T11:39:24.955Z,1022.6
2022-12-18T11:40:25.996Z,1022.6
2022-12-18T11:41:29.117Z,1022.6
2022-12-18T11:42:31.017Z,1022.5
2022-12-18T11:43:32.987Z,1022.5
2022-12-18T11:44:35.016Z,1022.5
2022-12-18T11:45:38.157Z,1022.4
2022-12-18T11:46:40.067Z,1022.5
2022-12-18T11:47:42.176Z,1022.4
2022-12-18T11:48:44.251Z,1022.5
2022-12-18T11:49:45.976Z,1022.5
2022-12-18T11:50:48.096Z,1022.4
2022-12-18T11:51:50.039Z,1022.5
2022-12-18T11:52:56.676Z,1022.4
2022-12-18T11:53:55.243Z,1022.4
2022-12-18T11:54:57.817Z,1022.4
2022-12-18T11:55:58.973Z,1022.4
2022-12-18T11:57:01.166Z,1022.4
2022-12-18T11:58:03.324Z,1022.3
2022-12-18T11:59:05.094Z,1022.4
2022-12-18T12:00:07.192Z,1022.3
2022-12-18T12:01:09.016Z,1022.3
2022-12-18T12:02:11.587Z,1022.3
2022-12-18T12:03:13.222Z,1022.4
2022-12-18T12:04:15.115Z,1022.4
2022-12-18T12:05:17.040Z,1022.4
2022-12-18T12:06:20.185Z,1022.4
2022-12-18T12:07:22.109Z,1022.4
2022-12-18T12:08:23.958Z,1022.4
2022-12-18T12:09:26.455Z,1022.4
2022-12-18T12:10:28.475Z,1022.4
2022-12-18T12:11:30.129Z,1022.4
2022-12-18T12:12:32.027Z,1022.4
2022-12-18T12:13:34.051Z,1022.4
2022-12-18T12:14:36.109Z,1022.3
2022-12-18T12:15:38.015Z,1022.4
2022-12-18T12:16:40.097Z,1022.4
2022-12-18T12:17:42.079Z,1022.4
2022-12-18T12:18:44.178Z,1022.3
2022-12-18T12:19:46.145Z,1022.4
2022-12-18T12:20:48.065Z,1022.4
2022-12-18T12:21:50.189Z,1022.3
2022-12-18T12:22:52.084Z,1022.3
2022-12-18T12:23:53.967Z,1022.3
2022-12-18T12:24:56.975Z,1022.3
2022-12-18T12:26:00.090Z,1022.3
2022-12-18T12:27:02.097Z,1022.3
2022-12-18T12:28:04.084Z,1022.3
2022-12-18T12:29:06.917Z,1022.3
2022-12-18T12:30:08.551Z,1022.3
2022-12-18T12:31:09.045Z,1022.3
2022-12-18T12:32:10.056Z,1022.3
2022-12-18T12:33:12.076Z,1022.3
2022-12-18T12:34:14.159Z,1021.9
2022-12-18T12:35:16.697Z,1022.2
2022-12-18T12:36:19.415Z,1022.2
2022-12-18T12:37:21.450Z,1022.3
2022-12-18T12:38:23.215Z,1022.3
2022-12-18T12:39:25.035Z,1022.3
2022-12-18T12:40:51.068Z,1022.3
2022-12-18T12:41:29.040Z,1022.3
2022-12-18T12:42:30.216Z,1022.3
2022-12-18T12:43:32.156Z,1022.3
2022-12-18T12:44:34.074Z,1022.3
2022-12-18T12:45:36.916Z,1022.2
2022-12-18T12:46:39.406Z,1022.2
2022-12-18T12:47:40.996Z,1022.3
2022-12-18T12:48:42.492Z,1022.2
2022-12-18T12:49:44.125Z,1022.3
2022-12-18T12:50:46.327Z,1022.2
2022-12-18T12:51:48.160Z,1022.3
2022-12-18T12:52:50.556Z,1022.3
2022-12-18T12:53:52.060Z,1022.2
2022-12-18T12:54:54.335Z,1022.2
2022-12-18T12:55:56.036Z,1022.2
2022-12-18T12:56:58.119Z,1022.3
2022-12-18T12:58:00.232Z,1022.3
2022-12-18T12:59:02.379Z,1022.3
2022-12-18T13:00:05.023Z,1022.3
2022-12-18T13:01:07.554Z,1022.4